sensor_id;sensor_type;location;lat;lon;timestamp;P1;durP1;ratioP1;P2;durP2;ratioP2
21354;SDS011;10835;50.148;19.760;2022-09-27T00:00:57;9.25;;;6.20;;
21354;SDS011;10835;50.148;19.760;2022-09-27T00:03:25;11.70;;;5.80;;
21354;SDS011;10835;50.148;19.760;2022-09-27T00:06:00;9.70;;;6.22;;
21354;SDS011;10835;50.148;19.760;2022-09-27T00:08:30;10.40;;;6.50;;
21354;SDS011;10835;50.148;19.760;2022-09-27T00:11:01;12.88;;;6.75;;
21354;SDS011;10835;50.148;19.760;2022-09-27T00:13:30;11.85;;;7.53;;
21354;SDS011;10835;50.148;19.760;2022-09-27T00:15:59;11.10;;;7.15;;
21354;SDS011;10835;50.148;19.760;2022-09-27T00:18:31;9.98;;;6.28;;
21354;SDS011;10835;50.148;19.760;2022-09-27T00:21:03;11.50;;;6.20;;
21354;SDS011;10835;50.148;19.760;2022-09-27T00:23:32;10.25;;;6.00;;
21354;SDS011;10835;50.148;19.760;2022-09-27T00:26:02;8.23;;;5.05;;
21354;SDS011;10835;50.148;19.760;2022-09-27T00:28:31;7.88;;;4.95;;
21354;SDS011;10835;50.148;19.760;2022-09-27T00:31:00;7.72;;;5.45;;
21354;SDS011;10835;50.148;19.760;2022-09-27T00:33:28;9.50;;;5.53;;
21354;SDS011;10835;50.148;19.760;2022-09-27T00:36:01;6.97;;;5.35;;
21354;SDS011;10835;50.148;19.760;2022-09-27T00:38:30;6.72;;;5.18;;
21354;SDS011;10835;50.148;19.760;2022-09-27T00:40:59;7.90;;;5.53;;
21354;SDS011;10835;50.148;19.760;2022-09-27T00:43:41;8.68;;;6.35;;
21354;SDS011;10835;50.148;19.760;2022-09-27T00:46:11;8.30;;;5.75;;
21354;SDS011;10835;50.148;19.760;2022-09-27T00:48:41;11.65;;;6.93;;
21354;SDS011;10835;50.148;19.760;2022-09-27T00:51:09;10.55;;;6.55;;
21354;SDS011;10835;50.148;19.760;2022-09-27T00:53:38;9.57;;;6.75;;
21354;SDS011;10835;50.148;19.760;2022-09-27T00:56:13;10.82;;;5.75;;
21354;SDS011;10835;50.148;19.760;2022-09-27T00:58:47;9.27;;;5.45;;
21354;SDS011;10835;50.148;19.760;2022-09-27T01:01:19;10.85;;;6.82;;
21354;SDS011;10835;50.148;19.760;2022-09-27T01:03:48;11.60;;;6.05;;
21354;SDS011;10835;50.148;19.760;2022-09-27T01:06:19;8.82;;;5.82;;
21354;SDS011;10835;50.148;19.760;2022-09-27T01:08:48;10.45;;;5.80;;
21354;SDS011;10835;50.148;19.760;2022-09-27T01:11:18;9.23;;;5.82;;
21354;SDS011;10835;50.148;19.760;2022-09-27T01:14:18;7.75;;;5.72;;
21354;SDS011;10835;50.148;19.760;2022-09-27T01:17:01;9.73;;;6.15;;
21354;SDS011;10835;50.148;19.760;2022-09-27T01:19:46;9.68;;;5.75;;
21354;SDS011;10835;50.148;19.760;2022-09-27T01:22:32;9.00;;;5.90;;
21354;SDS011;10835;50.148;19.760;2022-09-27T01:25:09;10.10;;;5.75;;
21354;SDS011;10835;50.148;19.760;2022-09-27T01:30:52;9.07;;;5.97;;
21354;SDS011;10835;50.148;19.760;2022-09-27T01:33:35;8.20;;;5.10;;
21354;SDS011;10835;50.148;19.760;2022-09-27T01:36:15;7.72;;;4.90;;
21354;SDS011;10835;50.148;19.760;2022-09-27T01:38:54;9.90;;;5.97;;
21354;SDS011;10835;50.148;19.760;2022-09-27T01:41:46;11.30;;;6.88;;
21354;SDS011;10835;50.148;19.760;2022-09-27T01:44:34;10.73;;;6.72;;
21354;SDS011;10835;50.148;19.760;2022-09-27T01:47:15;9.38;;;6.18;;
21354;SDS011;10835;50.148;19.760;2022-09-27T01:50:12;7.22;;;5.38;;
21354;SDS011;10835;50.148;19.760;2022-09-27T01:52:44;9.88;;;6.40;;
21354;SDS011;10835;50.148;19.760;2022-09-27T01:55:17;8.07;;;5.53;;
21354;SDS011;10835;50.148;19.760;2022-09-27T01:58:09;8.77;;;5.25;;
21354;SDS011;10835;50.148;19.760;2022-09-27T02:00:43;8.68;;;5.25;;
21354;SDS011;10835;50.148;19.760;2022-09-27T02:03:19;14.70;;;6.05;;
21354;SDS011;10835;50.148;19.760;2022-09-27T02:06:18;7.80;;;5.32;;
21354;SDS011;10835;50.148;19.760;2022-09-27T02:08:57;8.25;;;5.07;;
21354;SDS011;10835;50.148;19.760;2022-09-27T02:11:51;11.10;;;5.75;;
21354;SDS011;10835;50.148;19.760;2022-09-27T02:14:25;6.93;;;4.88;;
21354;SDS011;10835;50.148;19.760;2022-09-27T02:17:03;7.43;;;4.85;;
21354;SDS011;10835;50.148;19.760;2022-09-27T02:19:43;8.50;;;5.28;;
21354;SDS011;10835;50.148;19.760;2022-09-27T02:22:27;9.45;;;5.35;;
21354;SDS011;10835;50.148;19.760;2022-09-27T02:25:10;8.30;;;5.18;;
21354;SDS011;10835;50.148;19.760;2022-09-27T02:27:46;7.20;;;4.72;;
21354;SDS011;10835;50.148;19.760;2022-09-27T02:30:26;9.43;;;5.50;;
21354;SDS011;10835;50.148;19.760;2022-09-27T02:33:07;6.70;;;5.15;;
21354;SDS011;10835;50.148;19.760;2022-09-27T02:35:36;7.55;;;5.00;;
21354;SDS011;10835;50.148;19.760;2022-09-27T02:38:04;8.40;;;5.30;;
21354;SDS011;10835;50.148;19.760;2022-09-27T02:40:34;10.35;;;5.60;;
21354;SDS011;10835;50.148;19.760;2022-09-27T02:43:09;8.15;;;5.28;;
21354;SDS011;10835;50.148;19.760;2022-09-27T02:45:41;9.60;;;5.47;;
21354;SDS011;10835;50.148;19.760;2022-09-27T02:48:21;7.95;;;5.75;;
21354;SDS011;10835;50.148;19.760;2022-09-27T02:51:03;9.48;;;6.10;;
21354;SDS011;10835;50.148;19.760;2022-09-27T02:53:49;12.65;;;8.57;;
21354;SDS011;10835;50.148;19.760;2022-09-27T02:56:48;12.35;;;7.05;;
21354;SDS011;10835;50.148;19.760;2022-09-27T02:59:45;7.70;;;5.40;;
21354;SDS011;10835;50.148;19.760;2022-09-27T03:02:31;8.93;;;6.43;;
21354;SDS011;10835;50.148;19.760;2022-09-27T03:05:21;10.70;;;5.97;;
21354;SDS011;10835;50.148;19.760;2022-09-27T03:07:54;12.90;;;7.13;;
21354;SDS011;10835;50.148;19.760;2022-09-27T03:10:23;8.57;;;5.65;;
21354;SDS011;10835;50.148;19.760;2022-09-27T03:12:53;10.10;;;6.60;;
21354;SDS011;10835;50.148;19.760;2022-09-27T03:15:23;9.45;;;5.65;;
21354;SDS011;10835;50.148;19.760;2022-09-27T03:18:00;11.65;;;6.72;;
21354;SDS011;10835;50.148;19.760;2022-09-27T03:20:54;15.82;;;6.97;;
21354;SDS011;10835;50.148;19.760;2022-09-27T03:23:25;11.77;;;6.55;;
21354;SDS011;10835;50.148;19.760;2022-09-27T03:25:53;12.63;;;6.20;;
21354;SDS011;10835;50.148;19.760;2022-09-27T03:28:22;12.20;;;6.78;;
21354;SDS011;10835;50.148;19.760;2022-09-27T03:30:50;10.55;;;6.13;;
21354;SDS011;10835;50.148;19.760;2022-09-27T03:33:41;14.60;;;7.00;;
21354;SDS011;10835;50.148;19.760;2022-09-27T03:36:10;11.05;;;6.43;;
21354;SDS011;10835;50.148;19.760;2022-09-27T03:38:39;10.57;;;6.65;;
21354;SDS011;10835;50.148;19.760;2022-09-27T03:41:10;9.73;;;6.22;;
21354;SDS011;10835;50.148;19.760;2022-09-27T03:43:39;8.68;;;5.63;;
21354;SDS011;10835;50.148;19.760;2022-09-27T03:46:07;9.00;;;5.80;;
21354;SDS011;10835;50.148;19.760;2022-09-27T03:48:35;8.25;;;5.57;;
21354;SDS011;10835;50.148;19.760;2022-09-27T03:51:03;11.55;;;6.55;;
21354;SDS011;10835;50.148;19.760;2022-09-27T03:53:32;10.25;;;6.05;;
21354;SDS011;10835;50.148;19.760;2022-09-27T03:56:02;8.35;;;5.15;;
21354;SDS011;10835;50.148;19.760;2022-09-27T03:58:30;9.20;;;5.20;;
21354;SDS011;10835;50.148;19.760;2022-09-27T04:01:01;8.93;;;5.28;;
21354;SDS011;10835;50.148;19.760;2022-09-27T04:03:31;7.90;;;4.55;;
21354;SDS011;10835;50.148;19.760;2022-09-27T04:06:18;6.75;;;4.60;;
21354;SDS011;10835;50.148;19.760;2022-09-27T04:08:48;9.20;;;4.78;;
21354;SDS011;10835;50.148;19.760;2022-09-27T04:11:18;6.68;;;4.55;;
21354;SDS011;10835;50.148;19.760;2022-09-27T04:13:46;8.70;;;4.68;;
21354;SDS011;10835;50.148;19.760;2022-09-27T04:16:16;7.68;;;4.32;;
21354;SDS011;10835;50.148;19.760;2022-09-27T04:19:04;6.65;;;4.32;;
21354;SDS011;10835;50.148;19.760;2022-09-27T04:21:44;6.47;;;4.60;;
21354;SDS011;10835;50.148;19.760;2022-09-27T04:24:13;4.65;;;4.03;;
21354;SDS011;10835;50.148;19.760;2022-09-27T04:26:54;5.80;;;4.30;;
21354;SDS011;10835;50.148;19.760;2022-09-27T04:29:25;29.15;;;13.20;;
21354;SDS011;10835;50.148;19.760;2022-09-27T04:31:58;12.70;;;6.70;;
21354;SDS011;10835;50.148;19.760;2022-09-27T04:34:49;9.40;;;5.60;;
21354;SDS011;10835;50.148;19.760;2022-09-27T04:37:34;8.05;;;4.43;;
21354;SDS011;10835;50.148;19.760;2022-09-27T04:40:03;6.75;;;3.75;;
21354;SDS011;10835;50.148;19.760;2022-09-27T04:42:35;6.00;;;3.72;;
21354;SDS011;10835;50.148;19.760;2022-09-27T04:45:03;7.72;;;4.30;;
21354;SDS011;10835;50.148;19.760;2022-09-27T04:47:32;7.95;;;4.25;;
21354;SDS011;10835;50.148;19.760;2022-09-27T04:50:01;6.18;;;4.38;;
21354;SDS011;10835;50.148;19.760;2022-09-27T04:52:29;6.65;;;4.38;;
21354;SDS011;10835;50.148;19.760;2022-09-27T04:54:57;6.82;;;4.40;;
21354;SDS011;10835;50.148;19.760;2022-09-27T04:57:28;6.45;;;4.57;;
21354;SDS011;10835;50.148;19.760;2022-09-27T04:59:57;7.28;;;4.93;;
21354;SDS011;10835;50.148;19.760;2022-09-27T05:02:26;6.53;;;4.18;;
21354;SDS011;10835;50.148;19.760;2022-09-27T05:05:17;5.90;;;4.78;;
21354;SDS011;10835;50.148;19.760;2022-09-27T05:07:46;6.85;;;4.93;;
21354;SDS011;10835;50.148;19.760;2022-09-27T05:10:24;7.70;;;5.15;;
21354;SDS011;10835;50.148;19.760;2022-09-27T05:12:52;5.90;;;3.97;;
21354;SDS011;10835;50.148;19.760;2022-09-27T05:15:22;5.88;;;4.20;;
21354;SDS011;10835;50.148;19.760;2022-09-27T05:18:10;5.85;;;4.40;;
21354;SDS011;10835;50.148;19.760;2022-09-27T05:20:56;12.52;;;5.00;;
21354;SDS011;10835;50.148;19.760;2022-09-27T05:23:31;9.48;;;5.00;;
21354;SDS011;10835;50.148;19.760;2022-09-27T05:26:02;5.35;;;4.65;;
21354;SDS011;10835;50.148;19.760;2022-09-27T05:28:30;5.95;;;4.38;;
21354;SDS011;10835;50.148;19.760;2022-09-27T05:31:01;6.05;;;4.45;;
21354;SDS011;10835;50.148;19.760;2022-09-27T05:33:30;7.40;;;4.18;;
21354;SDS011;10835;50.148;19.760;2022-09-27T05:36:18;6.95;;;4.75;;
21354;SDS011;10835;50.148;19.760;2022-09-27T05:38:46;12.15;;;4.40;;
21354;SDS011;10835;50.148;19.760;2022-09-27T05:41:15;8.93;;;4.72;;
21354;SDS011;10835;50.148;19.760;2022-09-27T05:43:43;14.75;;;5.15;;
21354;SDS011;10835;50.148;19.760;2022-09-27T05:46:14;7.22;;;4.72;;
21354;SDS011;10835;50.148;19.760;2022-09-27T05:48:42;5.70;;;3.70;;
21354;SDS011;10835;50.148;19.760;2022-09-27T05:51:10;4.82;;;3.58;;
21354;SDS011;10835;50.148;19.760;2022-09-27T05:53:39;5.22;;;4.07;;
21354;SDS011;10835;50.148;19.760;2022-09-27T05:56:24;7.75;;;4.70;;
21354;SDS011;10835;50.148;19.760;2022-09-27T05:59:10;7.03;;;4.68;;
21354;SDS011;10835;50.148;19.760;2022-09-27T06:02:18;6.95;;;5.20;;
21354;SDS011;10835;50.148;19.760;2022-09-27T06:05:21;5.95;;;4.35;;
21354;SDS011;10835;50.148;19.760;2022-09-27T06:08:09;6.45;;;4.22;;
21354;SDS011;10835;50.148;19.760;2022-09-27T06:10:44;5.95;;;4.80;;
21354;SDS011;10835;50.148;19.760;2022-09-27T06:13:14;9.07;;;4.55;;
21354;SDS011;10835;50.148;19.760;2022-09-27T06:15:44;5.95;;;4.70;;
21354;SDS011;10835;50.148;19.760;2022-09-27T06:18:14;8.02;;;5.35;;
21354;SDS011;10835;50.148;19.760;2022-09-27T06:20:46;7.97;;;5.65;;
21354;SDS011;10835;50.148;19.760;2022-09-27T06:23:16;9.27;;;5.25;;
21354;SDS011;10835;50.148;19.760;2022-09-27T06:25:47;13.43;;;5.30;;
21354;SDS011;10835;50.148;19.760;2022-09-27T06:28:21;5.93;;;4.32;;
21354;SDS011;10835;50.148;19.760;2022-09-27T06:30:53;6.43;;;4.93;;
21354;SDS011;10835;50.148;19.760;2022-09-27T06:33:28;8.98;;;5.13;;
21354;SDS011;10835;50.148;19.760;2022-09-27T06:36:00;5.95;;;4.38;;
21354;SDS011;10835;50.148;19.760;2022-09-27T06:38:31;6.88;;;4.13;;
21354;SDS011;10835;50.148;19.760;2022-09-27T06:41:19;6.25;;;4.30;;
21354;SDS011;10835;50.148;19.760;2022-09-27T06:44:01;8.27;;;4.45;;
21354;SDS011;10835;50.148;19.760;2022-09-27T06:46:48;7.18;;;4.57;;
21354;SDS011;10835;50.148;19.760;2022-09-27T06:49:36;5.72;;;4.57;;
21354;SDS011;10835;50.148;19.760;2022-09-27T06:52:05;7.05;;;4.72;;
21354;SDS011;10835;50.148;19.760;2022-09-27T06:54:33;6.50;;;4.45;;
21354;SDS011;10835;50.148;19.760;2022-09-27T06:57:01;7.63;;;5.35;;
21354;SDS011;10835;50.148;19.760;2022-09-27T06:59:29;7.45;;;4.47;;
21354;SDS011;10835;50.148;19.760;2022-09-27T07:02:34;5.20;;;4.35;;
21354;SDS011;10835;50.148;19.760;2022-09-27T07:05:36;6.07;;;4.28;;
21354;SDS011;10835;50.148;19.760;2022-09-27T07:08:26;6.32;;;4.43;;
21354;SDS011;10835;50.148;19.760;2022-09-27T07:10:55;6.68;;;4.38;;
21354;SDS011;10835;50.148;19.760;2022-09-27T07:13:28;5.95;;;4.53;;
21354;SDS011;10835;50.148;19.760;2022-09-27T07:15:58;5.50;;;3.97;;
21354;SDS011;10835;50.148;19.760;2022-09-27T07:18:26;4.57;;;3.55;;
21354;SDS011;10835;50.148;19.760;2022-09-27T07:20:58;5.85;;;4.53;;
21354;SDS011;10835;50.148;19.760;2022-09-27T07:23:26;12.77;;;3.80;;
21354;SDS011;10835;50.148;19.760;2022-09-27T07:25:59;6.50;;;3.80;;
21354;SDS011;10835;50.148;19.760;2022-09-27T07:28:29;8.15;;;4.43;;
21354;SDS011;10835;50.148;19.760;2022-09-27T07:31:00;7.00;;;4.60;;
21354;SDS011;10835;50.148;19.760;2022-09-27T07:33:30;5.15;;;4.13;;
21354;SDS011;10835;50.148;19.760;2022-09-27T07:36:06;5.75;;;4.30;;
21354;SDS011;10835;50.148;19.760;2022-09-27T07:38:38;8.07;;;4.35;;
21354;SDS011;10835;50.148;19.760;2022-09-27T07:41:06;4.80;;;3.85;;
21354;SDS011;10835;50.148;19.760;2022-09-27T07:43:39;5.95;;;3.97;;
21354;SDS011;10835;50.148;19.760;2022-09-27T07:46:07;5.22;;;4.00;;
21354;SDS011;10835;50.148;19.760;2022-09-27T07:49:02;4.68;;;4.18;;
21354;SDS011;10835;50.148;19.760;2022-09-27T07:51:43;5.18;;;4.07;;
21354;SDS011;10835;50.148;19.760;2022-09-27T07:54:25;7.57;;;4.40;;
21354;SDS011;10835;50.148;19.760;2022-09-27T07:57:15;7.13;;;4.20;;
21354;SDS011;10835;50.148;19.760;2022-09-27T07:59:47;6.47;;;4.68;;
21354;SDS011;10835;50.148;19.760;2022-09-27T08:02:17;6.07;;;4.10;;
21354;SDS011;10835;50.148;19.760;2022-09-27T08:04:47;5.90;;;3.95;;
21354;SDS011;10835;50.148;19.760;2022-09-27T08:07:17;6.07;;;4.97;;
21354;SDS011;10835;50.148;19.760;2022-09-27T08:09:51;6.72;;;3.75;;
21354;SDS011;10835;50.148;19.760;2022-09-27T08:12:20;7.15;;;3.50;;
21354;SDS011;10835;50.148;19.760;2022-09-27T08:14:48;4.50;;;3.30;;
21354;SDS011;10835;50.148;19.760;2022-09-27T08:17:17;4.57;;;3.30;;
21354;SDS011;10835;50.148;19.760;2022-09-27T08:20:25;5.13;;;3.40;;
21354;SDS011;10835;50.148;19.760;2022-09-27T08:23:26;5.90;;;4.18;;
21354;SDS011;10835;50.148;19.760;2022-09-27T08:26:15;4.60;;;3.65;;
21354;SDS011;10835;50.148;19.760;2022-09-27T08:28:58;14.68;;;4.07;;
21354;SDS011;10835;50.148;19.760;2022-09-27T08:31:29;7.00;;;4.07;;
21354;SDS011;10835;50.148;19.760;2022-09-27T08:33:57;5.32;;;3.95;;
21354;SDS011;10835;50.148;19.760;2022-09-27T08:36:28;5.10;;;4.25;;
21354;SDS011;10835;50.148;19.760;2022-09-27T08:38:58;5.07;;;3.70;;
21354;SDS011;10835;50.148;19.760;2022-09-27T08:41:36;4.53;;;3.78;;
21354;SDS011;10835;50.148;19.760;2022-09-27T08:44:09;5.15;;;3.85;;
21354;SDS011;10835;50.148;19.760;2022-09-27T08:46:57;5.95;;;3.72;;
21354;SDS011;10835;50.148;19.760;2022-09-27T08:49:33;5.93;;;3.67;;
21354;SDS011;10835;50.148;19.760;2022-09-27T08:52:07;9.07;;;4.32;;
21354;SDS011;10835;50.148;19.760;2022-09-27T08:54:43;7.05;;;4.13;;
21354;SDS011;10835;50.148;19.760;2022-09-27T08:57:13;6.82;;;3.67;;
21354;SDS011;10835;50.148;19.760;2022-09-27T08:59:45;7.57;;;4.22;;
21354;SDS011;10835;50.148;19.760;2022-09-27T09:02:18;6.60;;;4.03;;
21354;SDS011;10835;50.148;19.760;2022-09-27T09:04:52;8.13;;;4.10;;
21354;SDS011;10835;50.148;19.760;2022-09-27T09:07:27;7.10;;;3.92;;
21354;SDS011;10835;50.148;19.760;2022-09-27T09:10:19;9.40;;;4.05;;
21354;SDS011;10835;50.148;19.760;2022-09-27T09:13:14;6.13;;;4.22;;
21354;SDS011;10835;50.148;19.760;2022-09-27T09:16:00;6.07;;;4.20;;
21354;SDS011;10835;50.148;19.760;2022-09-27T09:18:46;5.22;;;3.55;;
21354;SDS011;10835;50.148;19.760;2022-09-27T09:21:47;5.40;;;3.95;;
21354;SDS011;10835;50.148;19.760;2022-09-27T09:24:29;8.13;;;3.72;;
21354;SDS011;10835;50.148;19.760;2022-09-27T09:27:06;7.93;;;3.40;;
21354;SDS011;10835;50.148;19.760;2022-09-27T09:30:00;5.68;;;4.00;;
21354;SDS011;10835;50.148;19.760;2022-09-27T09:32:49;4.30;;;3.60;;
21354;SDS011;10835;50.148;19.760;2022-09-27T09:35:29;6.15;;;4.03;;
21354;SDS011;10835;50.148;19.760;2022-09-27T09:38:03;5.68;;;3.95;;
21354;SDS011;10835;50.148;19.760;2022-09-27T09:40:39;6.75;;;4.22;;
21354;SDS011;10835;50.148;19.760;2022-09-27T09:43:15;6.35;;;4.13;;
21354;SDS011;10835;50.148;19.760;2022-09-27T09:45:50;6.10;;;4.35;;
21354;SDS011;10835;50.148;19.760;2022-09-27T09:48:27;5.40;;;3.88;;
21354;SDS011;10835;50.148;19.760;2022-09-27T09:51:00;6.82;;;4.35;;
21354;SDS011;10835;50.148;19.760;2022-09-27T09:53:35;6.95;;;4.40;;
21354;SDS011;10835;50.148;19.760;2022-09-27T09:56:11;6.78;;;4.47;;
21354;SDS011;10835;50.148;19.760;2022-09-27T09:58:49;8.95;;;5.30;;
21354;SDS011;10835;50.148;19.760;2022-09-27T10:01:27;9.15;;;4.43;;
21354;SDS011;10835;50.148;19.760;2022-09-27T10:04:00;8.00;;;4.88;;
21354;SDS011;10835;50.148;19.760;2022-09-27T10:06:28;7.88;;;4.93;;
21354;SDS011;10835;50.148;19.760;2022-09-27T10:09:03;12.15;;;5.13;;
21354;SDS011;10835;50.148;19.760;2022-09-27T10:11:45;7.72;;;5.03;;
21354;SDS011;10835;50.148;19.760;2022-09-27T10:14:18;9.07;;;5.03;;
21354;SDS011;10835;50.148;19.760;2022-09-27T10:16:52;7.93;;;4.82;;
21354;SDS011;10835;50.148;19.760;2022-09-27T10:19:24;7.20;;;4.15;;
21354;SDS011;10835;50.148;19.760;2022-09-27T10:21:58;7.85;;;4.00;;
21354;SDS011;10835;50.148;19.760;2022-09-27T10:24:29;5.55;;;3.72;;
21354;SDS011;10835;50.148;19.760;2022-09-27T10:27:42;7.53;;;4.30;;
21354;SDS011;10835;50.148;19.760;2022-09-27T10:30:25;5.72;;;4.35;;
21354;SDS011;10835;50.148;19.760;2022-09-27T10:32:56;9.18;;;4.28;;
21354;SDS011;10835;50.148;19.760;2022-09-27T10:35:41;6.90;;;5.13;;
21354;SDS011;10835;50.148;19.760;2022-09-27T10:38:24;9.38;;;5.10;;
21354;SDS011;10835;50.148;19.760;2022-09-27T10:43:43;8.38;;;4.78;;
21354;SDS011;10835;50.148;19.760;2022-09-27T10:46:23;7.05;;;4.38;;
21354;SDS011;10835;50.148;19.760;2022-09-27T10:49:08;5.40;;;4.32;;
21354;SDS011;10835;50.148;19.760;2022-09-27T10:51:48;5.75;;;3.83;;
21354;SDS011;10835;50.148;19.760;2022-09-27T10:54:20;10.52;;;5.88;;
21354;SDS011;10835;50.148;19.760;2022-09-27T10:56:54;8.15;;;5.13;;
21354;SDS011;10835;50.148;19.760;2022-09-27T10:59:24;11.25;;;4.25;;
21354;SDS011;10835;50.148;19.760;2022-09-27T11:01:57;6.60;;;4.90;;
21354;SDS011;10835;50.148;19.760;2022-09-27T11:04:38;7.25;;;5.05;;
21354;SDS011;10835;50.148;19.760;2022-09-27T11:07:13;7.68;;;4.72;;
21354;SDS011;10835;50.148;19.760;2022-09-27T11:09:50;7.00;;;4.60;;
21354;SDS011;10835;50.148;19.760;2022-09-27T11:12:21;5.80;;;4.43;;
21354;SDS011;10835;50.148;19.760;2022-09-27T11:14:52;7.65;;;4.57;;
21354;SDS011;10835;50.148;19.760;2022-09-27T11:17:26;8.10;;;4.38;;
21354;SDS011;10835;50.148;19.760;2022-09-27T11:20:05;7.50;;;4.45;;
21354;SDS011;10835;50.148;19.760;2022-09-27T11:22:55;8.35;;;5.38;;
21354;SDS011;10835;50.148;19.760;2022-09-27T11:25:42;8.35;;;5.68;;
21354;SDS011;10835;50.148;19.760;2022-09-27T11:28:26;7.60;;;5.32;;
21354;SDS011;10835;50.148;19.760;2022-09-27T11:31:11;8.45;;;6.10;;
21354;SDS011;10835;50.148;19.760;2022-09-27T11:37:07;7.40;;;5.65;;
21354;SDS011;10835;50.148;19.760;2022-09-27T11:39:47;8.40;;;4.80;;
21354;SDS011;10835;50.148;19.760;2022-09-27T11:42:38;8.07;;;5.10;;
21354;SDS011;10835;50.148;19.760;2022-09-27T11:45:24;6.43;;;5.20;;
21354;SDS011;10835;50.148;19.760;2022-09-27T11:48:25;6.28;;;4.38;;
21354;SDS011;10835;50.148;19.760;2022-09-27T11:51:12;7.63;;;5.53;;
21354;SDS011;10835;50.148;19.760;2022-09-27T11:53:58;7.57;;;5.15;;
21354;SDS011;10835;50.148;19.760;2022-09-27T11:56:40;10.88;;;5.25;;
21354;SDS011;10835;50.148;19.760;2022-09-27T11:59:32;7.80;;;5.22;;
21354;SDS011;10835;50.148;19.760;2022-09-27T12:02:27;12.40;;;5.28;;
21354;SDS011;10835;50.148;19.760;2022-09-27T12:05:08;7.78;;;4.75;;
21354;SDS011;10835;50.148;19.760;2022-09-27T12:08:01;7.72;;;4.70;;
21354;SDS011;10835;50.148;19.760;2022-09-27T12:10:40;6.65;;;4.80;;
21354;SDS011;10835;50.148;19.760;2022-09-27T12:13:15;5.88;;;4.78;;
21354;SDS011;10835;50.148;19.760;2022-09-27T12:15:50;6.55;;;4.35;;
21354;SDS011;10835;50.148;19.760;2022-09-27T12:18:23;8.07;;;4.63;;
21354;SDS011;10835;50.148;19.760;2022-09-27T12:20:56;6.93;;;4.93;;
21354;SDS011;10835;50.148;19.760;2022-09-27T12:23:28;8.48;;;4.20;;
21354;SDS011;10835;50.148;19.760;2022-09-27T12:26:30;5.93;;;4.05;;
21354;SDS011;10835;50.148;19.760;2022-09-27T12:29:04;7.97;;;4.00;;
21354;SDS011;10835;50.148;19.760;2022-09-27T12:31:40;6.53;;;3.25;;
21354;SDS011;10835;50.148;19.760;2022-09-27T12:34:13;6.93;;;4.13;;
21354;SDS011;10835;50.148;19.760;2022-09-27T12:36:48;4.55;;;3.03;;
21354;SDS011;10835;50.148;19.760;2022-09-27T12:39:22;4.78;;;3.25;;
21354;SDS011;10835;50.148;19.760;2022-09-27T12:42:11;6.53;;;3.75;;
21354;SDS011;10835;50.148;19.760;2022-09-27T12:44:45;6.30;;;3.92;;
21354;SDS011;10835;50.148;19.760;2022-09-27T12:47:23;7.05;;;3.53;;
21354;SDS011;10835;50.148;19.760;2022-09-27T12:50:10;5.47;;;3.58;;
21354;SDS011;10835;50.148;19.760;2022-09-27T12:52:48;4.85;;;3.38;;
21354;SDS011;10835;50.148;19.760;2022-09-27T12:55:29;4.90;;;3.78;;
21354;SDS011;10835;50.148;19.760;2022-09-27T12:58:21;5.68;;;3.70;;
21354;SDS011;10835;50.148;19.760;2022-09-27T13:01:09;4.63;;;3.63;;
21354;SDS011;10835;50.148;19.760;2022-09-27T13:03:50;3.50;;;2.92;;
21354;SDS011;10835;50.148;19.760;2022-09-27T13:06:33;6.15;;;3.88;;
21354;SDS011;10835;50.148;19.760;2022-09-27T13:12:06;9.30;;;3.83;;
21354;SDS011;10835;50.148;19.760;2022-09-27T13:14:41;4.97;;;3.67;;
21354;SDS011;10835;50.148;19.760;2022-09-27T13:20:39;4.43;;;3.45;;
21354;SDS011;10835;50.148;19.760;2022-09-27T13:26:44;3.53;;;2.60;;
21354;SDS011;10835;50.148;19.760;2022-09-27T13:29:21;4.50;;;3.42;;
21354;SDS011;10835;50.148;19.760;2022-09-27T13:32:01;7.05;;;3.25;;
21354;SDS011;10835;50.148;19.760;2022-09-27T13:35:08;6.53;;;3.42;;
21354;SDS011;10835;50.148;19.760;2022-09-27T13:37:45;3.63;;;3.20;;
21354;SDS011;10835;50.148;19.760;2022-09-27T13:40:25;3.70;;;2.67;;
21354;SDS011;10835;50.148;19.760;2022-09-27T13:43:26;4.43;;;2.33;;
21354;SDS011;10835;50.148;19.760;2022-09-27T13:46:36;2.83;;;2.47;;
21354;SDS011;10835;50.148;19.760;2022-09-27T13:49:22;3.92;;;2.50;;
21354;SDS011;10835;50.148;19.760;2022-09-27T13:52:13;4.97;;;2.22;;
21354;SDS011;10835;50.148;19.760;2022-09-27T13:54:57;2.45;;;2.10;;
21354;SDS011;10835;50.148;19.760;2022-09-27T13:57:40;3.53;;;2.47;;
21354;SDS011;10835;50.148;19.760;2022-09-27T14:00:16;2.20;;;2.00;;
21354;SDS011;10835;50.148;19.760;2022-09-27T14:02:54;2.42;;;2.22;;
21354;SDS011;10835;50.148;19.760;2022-09-27T14:05:31;1.90;;;1.70;;
21354;SDS011;10835;50.148;19.760;2022-09-27T14:08:03;3.40;;;2.20;;
21354;SDS011;10835;50.148;19.760;2022-09-27T14:10:33;3.38;;;2.38;;
21354;SDS011;10835;50.148;19.760;2022-09-27T14:13:03;2.42;;;2.17;;
21354;SDS011;10835;50.148;19.760;2022-09-27T14:15:41;2.97;;;2.40;;
21354;SDS011;10835;50.148;19.760;2022-09-27T14:18:13;2.35;;;1.77;;
21354;SDS011;10835;50.148;19.760;2022-09-27T14:20:44;2.42;;;1.85;;
21354;SDS011;10835;50.148;19.760;2022-09-27T14:23:38;3.85;;;2.13;;
21354;SDS011;10835;50.148;19.760;2022-09-27T14:26:17;4.38;;;2.25;;
21354;SDS011;10835;50.148;19.760;2022-09-27T14:28:52;3.75;;;2.10;;
21354;SDS011;10835;50.148;19.760;2022-09-27T14:31:26;2.67;;;2.28;;
21354;SDS011;10835;50.148;19.760;2022-09-27T14:34:10;3.00;;;1.95;;
21354;SDS011;10835;50.148;19.760;2022-09-27T14:36:45;3.40;;;2.10;;
21354;SDS011;10835;50.148;19.760;2022-09-27T14:39:43;2.50;;;2.05;;
21354;SDS011;10835;50.148;19.760;2022-09-27T14:42:26;3.72;;;2.13;;
21354;SDS011;10835;50.148;19.760;2022-09-27T14:45:00;2.25;;;1.92;;
21354;SDS011;10835;50.148;19.760;2022-09-27T14:47:31;3.13;;;2.00;;
21354;SDS011;10835;50.148;19.760;2022-09-27T14:50:00;4.57;;;1.60;;
21354;SDS011;10835;50.148;19.760;2022-09-27T14:52:41;2.50;;;1.98;;
21354;SDS011;10835;50.148;19.760;2022-09-27T14:55:14;2.90;;;1.90;;
21354;SDS011;10835;50.148;19.760;2022-09-27T14:57:44;5.93;;;2.67;;
21354;SDS011;10835;50.148;19.760;2022-09-27T15:00:16;4.57;;;2.45;;
21354;SDS011;10835;50.148;19.760;2022-09-27T15:02:50;3.22;;;2.70;;
21354;SDS011;10835;50.148;19.760;2022-09-27T15:05:21;5.78;;;3.20;;
21354;SDS011;10835;50.148;19.760;2022-09-27T15:07:52;6.25;;;3.25;;
21354;SDS011;10835;50.148;19.760;2022-09-27T15:10:24;5.00;;;3.28;;
21354;SDS011;10835;50.148;19.760;2022-09-27T15:12:56;3.33;;;2.60;;
21354;SDS011;10835;50.148;19.760;2022-09-27T15:15:27;4.70;;;3.13;;
21354;SDS011;10835;50.148;19.760;2022-09-27T15:17:57;5.38;;;3.53;;
21354;SDS011;10835;50.148;19.760;2022-09-27T15:20:26;4.22;;;3.00;;
21354;SDS011;10835;50.148;19.760;2022-09-27T15:23:02;5.13;;;2.67;;
21354;SDS011;10835;50.148;19.760;2022-09-27T15:25:32;5.80;;;3.17;;
21354;SDS011;10835;50.148;19.760;2022-09-27T15:28:05;3.85;;;2.38;;
21354;SDS011;10835;50.148;19.760;2022-09-27T15:30:45;2.47;;;1.60;;
21354;SDS011;10835;50.148;19.760;2022-09-27T15:33:18;2.40;;;1.65;;
21354;SDS011;10835;50.148;19.760;2022-09-27T15:35:49;1.92;;;1.30;;
21354;SDS011;10835;50.148;19.760;2022-09-27T15:38:24;2.63;;;1.85;;
21354;SDS011;10835;50.148;19.760;2022-09-27T15:40:55;3.50;;;2.00;;
21354;SDS011;10835;50.148;19.760;2022-09-27T15:43:35;3.47;;;1.92;;
21354;SDS011;10835;50.148;19.760;2022-09-27T15:46:27;2.45;;;1.83;;
21354;SDS011;10835;50.148;19.760;2022-09-27T15:49:17;1.48;;;1.38;;
21354;SDS011;10835;50.148;19.760;2022-09-27T15:52:00;1.30;;;0.95;;